Time;durP1;ratioP1;P1;durP2;ratioP2;P2;SDS_P1;SDS_P2;PMS_P1;PMS_P2;Temp;Humidity;BMP_temperature;BMP_pressure;BME280_temperature;BME280_humidity;BME280_pressure;Samples;Min_cycle;Max_cycle;Signal;HPM_P1;HPM_P2
2023/12/02 00:00:35;;;;;;;28.93;22.53;;;;;;;;;;4955182;29;20229;-83
2023/12/02 00:03:00;;;;;;;33.80;23.60;;;;;;;;;;4942493;29;20231;-82
2023/12/02 00:05:26;;;;;;;29.20;23.30;;;;;;;;;;4944331;29;20211;-82
2023/12/02 00:07:51;;;;;;;27.63;23.93;;;;;;;;;;4959687;28;20234;-83
2023/12/02 00:10:19;;;;;;;24.47;21.43;;;;;;;;;;4933384;28;20219;-83
2023/12/02 00:12:44;;;;;;;29.40;24.13;;;;;;;;;;4935698;29;20258;-83
2023/12/02 00:15:10;;;;;;;30.03;23.30;;;;;;;;;;4906023;28;20235;-82
2023/12/02 00:17:35;;;;;;;31.03;24.50;;;;;;;;;;4937943;29;20290;-83
2023/12/02 00:20:02;;;;;;;29.37;23.60;;;;;;;;;;4930052;29;20214;-83
2023/12/02 00:22:28;;;;;;;30.77;25.00;;;;;;;;;;4933725;28;20222;-84
2023/12/02 00:24:53;;;;;;;29.93;24.73;;;;;;;;;;4936050;28;20256;-83
2023/12/02 00:27:23;;;;;;;32.57;24.70;;;;;;;;;;4907345;28;20218;-83
2023/12/02 00:29:48;;;;;;;30.27;24.17;;;;;;;;;;4906282;29;20246;-82
2023/12/02 00:32:14;;;;;;;28.73;23.93;;;;;;;;;;4921552;28;20271;-83
2023/12/02 00:34:40;;;;;;;34.20;22.97;;;;;;;;;;4930076;28;20219;-83
2023/12/02 00:37:05;;;;;;;31.13;24.27;;;;;;;;;;4914963;28;20592;-82
2023/12/02 00:39:33;;;;;;;30.90;24.97;;;;;;;;;;4914356;29;20231;-83
2023/12/02 00:42:01;;;;;;;31.87;24.50;;;;;;;;;;4937799;29;20310;-83
2023/12/02 00:44:26;;;;;;;40.20;25.90;;;;;;;;;;4946129;28;20223;-83
2023/12/02 00:46:52;;;;;;;33.40;26.60;;;;;;;;;;4915470;29;20592;-81
2023/12/02 00:49:20;;;;;;;33.10;25.03;;;;;;;;;;4922057;28;20628;-82
2023/12/02 00:51:45;;;;;;;36.70;25.47;;;;;;;;;;4921658;29;20233;-83
2023/12/02 00:54:11;;;;;;;39.00;25.23;;;;;;;;;;4931847;28;20219;-83
2023/12/02 00:56:36;;;;;;;35.07;25.60;;;;;;;;;;4928829;29;20627;-83
2023/12/02 00:59:04;;;;;;;30.80;24.10;;;;;;;;;;4928772;29;20764;-81
2023/12/02 01:01:32;;;;;;;40.50;25.90;;;;;;;;;;4931570;29;20223;-82
2023/12/02 01:03:59;;;;;;;35.37;26.57;;;;;;;;;;4929776;29;20218;-84
2023/12/02 01:06:25;;;;;;;34.60;25.37;;;;;;;;;;4913275;29;20249;-81
2023/12/02 01:08:51;;;;;;;30.30;25.53;;;;;;;;;;4934799;29;20671;-83
2023/12/02 01:11:16;;;;;;;31.03;24.47;;;;;;;;;;4932428;29;20227;-83
2023/12/02 01:13:42;;;;;;;34.90;26.03;;;;;;;;;;4916913;29;20259;-83
2023/12/02 01:16:08;;;;;;;33.37;26.20;;;;;;;;;;4912092;28;20223;-83
2023/12/02 01:18:33;;;;;;;31.83;24.40;;;;;;;;;;4945163;28;20230;-83
2023/12/02 01:21:01;;;;;;;34.03;26.47;;;;;;;;;;4936776;29;20215;-83
2023/12/02 01:23:29;;;;;;;37.07;25.93;;;;;;;;;;4915284;29;20256;-83
2023/12/02 01:25:54;;;;;;;37.10;28.57;;;;;;;;;;4935196;29;20255;-83
2023/12/02 01:28:20;;;;;;;33.77;26.10;;;;;;;;;;4921100;28;20218;-82
2023/12/02 01:30:48;;;;;;;41.33;25.63;;;;;;;;;;4931149;28;20242;-83
2023/12/02 01:33:13;;;;;;;33.73;25.30;;;;;;;;;;4934466;28;20227;-83
2023/12/02 01:35:42;;;;;;;35.70;25.83;;;;;;;;;;4919551;29;20326;-82
2023/12/02 01:38:08;;;;;;;44.23;29.33;;;;;;;;;;4925600;29;20243;-83
2023/12/02 01:40:35;;;;;;;39.43;27.60;;;;;;;;;;4902532;29;20234;-83
2023/12/02 01:43:02;;;;;;;39.53;28.20;;;;;;;;;;4904835;29;20221;-82
2023/12/02 01:45:29;;;;;;;33.33;27.90;;;;;;;;;;4927666;29;20236;-82
2023/12/02 01:47:56;;;;;;;35.33;27.57;;;;;;;;;;4912123;29;20774;-83
2023/12/02 01:50:22;;;;;;;40.40;27.43;;;;;;;;;;4914564;28;20211;-81
2023/12/02 01:52:47;;;;;;;43.23;29.43;;;;;;;;;;4942552;29;20234;-83
2023/12/02 01:55:13;;;;;;;34.20;26.80;;;;;;;;;;4914184;29;20735;-83
2023/12/02 01:57:41;;;;;;;38.47;27.53;;;;;;;;;;4913080;29;20219;-82
2023/12/02 02:00:09;;;;;;;39.87;28.73;;;;;;;;;;4924287;29;20215;-83
2023/12/02 02:02:38;;;;;;;38.80;27.30;;;;;;;;;;4920100;29;20321;-83
2023/12/02 02:05:04;;;;;;;40.47;29.67;;;;;;;;;;4921420;28;20226;-83
2023/12/02 02:07:29;;;;;;;38.37;29.13;;;;;;;;;;4913223;29;21021;-83
2023/12/02 02:09:55;;;;;;;35.10;26.70;;;;;;;;;;4911120;29;20234;-82
2023/12/02 02:12:20;;;;;;;41.33;29.93;;;;;;;;;;4928518;29;20241;-83
2023/12/02 02:14:48;;;;;;;34.20;26.77;;;;;;;;;;4920629;28;20234;-84
2023/12/02 02:17:14;;;;;;;38.73;29.27;;;;;;;;;;4917565;28;20278;-83
2023/12/02 02:19:39;;;;;;;34.67;28.57;;;;;;;;;;4929983;29;20235;-83
2023/12/02 02:22:05;;;;;;;41.17;29.47;;;;;;;;;;4938252;28;20226;-82
2023/12/02 02:24:32;;;;;;;38.07;28.50;;;;;;;;;;4917804;28;20290;-83
2023/12/02 02:27:00;;;;;;;35.60;28.07;;;;;;;;;;4941282;29;20215;-82
2023/12/02 02:29:26;;;;;;;39.37;28.50;;;;;;;;;;4917220;28;20230;-83
2023/12/02 02:31:51;;;;;;;39.23;28.50;;;;;;;;;;4932068;29;20286;-83
2023/12/02 02:34:18;;;;;;;36.03;28.17;;;;;;;;;;4918276;29;20231;-84
2023/12/02 02:36:43;;;;;;;34.07;28.10;;;;;;;;;;4929120;28;20258;-83
2023/12/02 02:39:16;;;;;;;34.93;27.60;;;;;;;;;;4891578;28;20227;-83
2023/12/02 02:41:47;;;;;;;36.87;28.27;;;;;;;;;;4918719;29;20278;-84
2023/12/02 02:44:12;;;;;;;34.60;27.67;;;;;;;;;;4916205;28;20581;-83
2023/12/02 02:46:38;;;;;;;34.97;27.53;;;;;;;;;;4922895;29;20227;-83
2023/12/02 02:49:05;;;;;;;34.80;26.53;;;;;;;;;;4918816;28;20211;-83
2023/12/02 02:51:31;;;;;;;35.87;27.60;;;;;;;;;;4933883;29;20601;-83
2023/12/02 02:53:59;;;;;;;34.27;27.10;;;;;;;;;;4932380;29;21118;-83
2023/12/02 02:56:26;;;;;;;34.17;28.13;;;;;;;;;;4931531;28;20300;-83
2023/12/02 02:58:52;;;;;;;33.90;28.20;;;;;;;;;;4918863;29;20230;-83
2023/12/02 03:01:17;;;;;;;39.47;29.50;;;;;;;;;;4926380;28;20234;-82
2023/12/02 03:03:43;;;;;;;37.67;29.33;;;;;;;;;;4933493;28;20227;-83
2023/12/02 03:06:11;;;;;;;34.63;27.00;;;;;;;;;;4927550;29;20233;-83
2023/12/02 03:08:37;;;;;;;34.70;27.07;;;;;;;;;;4922230;29;20227;-84
2023/12/02 03:11:02;;;;;;;34.87;26.93;;;;;;;;;;4931564;29;21012;-83
2023/12/02 03:13:28;;;;;;;35.40;27.53;;;;;;;;;;4930411;29;20234;-83
2023/12/02 03:15:53;;;;;;;35.07;29.17;;;;;;;;;;4919295;29;20242;-84
2023/12/02 03:18:19;;;;;;;32.60;27.77;;;;;;;;;;4912469;29;20223;-84
2023/12/02 03:20:44;;;;;;;37.07;27.87;;;;;;;;;;4926209;28;20230;-83
2023/12/02 03:23:10;;;;;;;35.17;28.57;;;;;;;;;;4932231;28;20222;-82
2023/12/02 03:25:35;;;;;;;33.23;27.37;;;;;;;;;;4961366;28;20223;-83
2023/12/02 03:28:03;;;;;;;35.03;27.67;;;;;;;;;;4910303;29;20223;-83
2023/12/02 03:30:31;;;;;;;37.23;29.50;;;;;;;;;;4930697;29;20241;-83
2023/12/02 03:32:59;;;;;;;35.00;27.83;;;;;;;;;;4932380;29;20227;-83
2023/12/02 03:35:29;;;;;;;41.10;29.53;;;;;;;;;;4927470;28;20309;-84
2023/12/02 03:37:57;;;;;;;38.03;28.83;;;;;;;;;;4915029;29;20347;-83
2023/12/02 03:40:26;;;;;;;36.43;27.60;;;;;;;;;;4917944;28;20638;-83
2023/12/02 03:42:53;;;;;;;37.50;29.10;;;;;;;;;;4906191;29;20219;-82
2023/12/02 03:45:19;;;;;;;40.30;29.20;;;;;;;;;;4915950;29;20230;-83
2023/12/02 03:47:47;;;;;;;38.60;29.73;;;;;;;;;;4916529;29;20223;-83
2023/12/02 03:50:15;;;;;;;36.70;28.17;;;;;;;;;;4940112;29;20223;-83
2023/12/02 03:52:40;;;;;;;35.50;30.13;;;;;;;;;;4922044;29;20241;-83
2023/12/02 03:55:08;;;;;;;42.43;33.03;;;;;;;;;;4941023;29;20234;-84
2023/12/02 03:57:36;;;;;;;46.57;34.50;;;;;;;;;;4943311;29;20251;-83
2023/12/02 04:03:52;;;;;;;42.13;31.80;;;;;;;;;;4955562;29;20238;-84
2023/12/02 04:06:18;;;;;;;35.87;29.17;;;;;;;;;;4936546;28;20226;-84
2023/12/02 04:08:43;;;;;;;38.60;30.37;;;;;;;;;;4915892;29;20231;-83
2023/12/02 04:11:11;;;;;;;37.97;29.13;;;;;;;;;;4925687;28;20249;-83
2023/12/02 04:13:37;;;;;;;39.73;32.13;;;;;;;;;;4934295;29;20314;-83
2023/12/02 04:16:03;;;;;;;39.43;31.60;;;;;;;;;;4935038;28;20231;-83
2023/12/02 04:18:29;;;;;;;37.43;30.03;;;;;;;;;;4934411;29;20254;-83
2023/12/02 04:20:54;;;;;;;36.90;29.27;;;;;;;;;;4933675;29;20243;-83
2023/12/02 04:23:20;;;;;;;39.77;31.87;;;;;;;;;;4918893;29;20270;-82
2023/12/02 04:25:48;;;;;;;37.60;30.27;;;;;;;;;;4935996;29;20239;-84
2023/12/02 04:28:13;;;;;;;38.37;31.33;;;;;;;;;;4934631;28;20230;-84
2023/12/02 04:30:39;;;;;;;35.27;30.10;;;;;;;;;;4932371;29;20298;-84
2023/12/02 04:33:04;;;;;;;44.50;30.00;;;;;;;;;;4930555;28;20759;-84
2023/12/02 04:35:31;;;;;;;37.70;29.47;;;;;;;;;;4920990;29;20231;-84
2023/12/02 04:37:57;;;;;;;38.10;29.77;;;;;;;;;;4912647;29;20222;-84
2023/12/02 04:40:22;;;;;;;37.30;29.93;;;;;;;;;;4932226;29;20632;-84
2023/12/02 04:42:50;;;;;;;41.93;30.97;;;;;;;;;;4952818;29;20228;-84
2023/12/02 04:45:16;;;;;;;38.20;29.63;;;;;;;;;;4922507;28;20222;-84
2023/12/02 04:47:44;;;;;;;37.47;30.07;;;;;;;;;;4920781;29;20239;-83
2023/12/02 04:50:09;;;;;;;40.80;31.17;;;;;;;;;;4954309;28;20219;-83
2023/12/02 04:52:35;;;;;;;39.50;31.43;;;;;;;;;;4923341;28;20238;-84
2023/12/02 04:55:00;;;;;;;39.00;31.37;;;;;;;;;;4923166;29;20231;-83
2023/12/02 04:57:29;;;;;;;42.23;31.70;;;;;;;;;;4944631;28;20214;-82
2023/12/02 04:59:57;;;;;;;44.90;30.37;;;;;;;;;;4924960;29;20226;-83
2023/12/02 05:02:23;;;;;;;39.97;32.30;;;;;;;;;;4935285;29;20227;-83
2023/12/02 05:04:49;;;;;;;41.23;31.50;;;;;;;;;;4922519;29;20230;-82
2023/12/02 05:07:15;;;;;;;40.37;29.57;;;;;;;;;;4931668;28;20270;-84
2023/12/02 05:09:43;;;;;;;47.27;32.23;;;;;;;;;;4907567;29;20227;-82
2023/12/02 05:12:11;;;;;;;43.60;32.37;;;;;;;;;;4923831;28;20759;-83
2023/12/02 05:14:37;;;;;;;37.80;31.70;;;;;;;;;;4910964;29;20243;-83
2023/12/02 05:17:05;;;;;;;35.10;30.20;;;;;;;;;;4953932;28;20311;-83
2023/12/02 05:19:31;;;;;;;39.33;31.37;;;;;;;;;;4938850;29;20597;-82
2023/12/02 05:21:56;;;;;;;41.67;32.53;;;;;;;;;;4929953;29;20231;-84
2023/12/02 05:24:22;;;;;;;47.10;31.97;;;;;;;;;;4928329;28;20218;-83
2023/12/02 05:26:49;;;;;;;39.23;30.67;;;;;;;;;;4906960;29;20697;-82
2023/12/02 05:29:15;;;;;;;40.10;31.40;;;;;;;;;;4938245;28;20219;-82
2023/12/02 05:31:40;;;;;;;37.27;31.47;;;;;;;;;;4948887;28;20242;-83
2023/12/02 05:34:06;;;;;;;37.57;31.23;;;;;;;;;;4921900;28;20233;-84
2023/12/02 05:36:31;;;;;;;38.80;32.67;;;;;;;;;;4922258;29;20658;-83
2023/12/02 05:38:59;;;;;;;40.00;32.03;;;;;;;;;;4922639;29;20643;-84
2023/12/02 05:41:25;;;;;;;42.53;32.97;;;;;;;;;;4923060;28;20227;-83
2023/12/02 05:43:50;;;;;;;45.40;34.50;;;;;;;;;;4944339;29;20303;-81
2023/12/02 05:46:16;;;;;;;40.63;31.60;;;;;;;;;;4950443;28;20215;-82
2023/12/02 05:48:45;;;;;;;42.63;33.17;;;;;;;;;;4932499;29;20223;-82
2023/12/02 05:51:16;;;;;;;42.67;33.70;;;;;;;;;;4963867;28;20637;-82
2023/12/02 05:53:44;;;;;;;37.77;30.17;;;;;;;;;;4926714;29;20254;-82
2023/12/02 05:56:09;;;;;;;39.80;30.93;;;;;;;;;;4923695;28;20218;-81
2023/12/02 05:58:35;;;;;;;46.23;34.67;;;;;;;;;;4940121;29;20245;-81
2023/12/02 06:01:01;;;;;;;43.30;32.93;;;;;;;;;;4927400;29;20241;-82
2023/12/02 06:03:27;;;;;;;41.17;32.80;;;;;;;;;;4926740;28;20226;-81
2023/12/02 06:05:52;;;;;;;43.83;34.37;;;;;;;;;;4943446;29;20245;-81
2023/12/02 06:08:18;;;;;;;44.77;35.17;;;;;;;;;;4943649;28;20218;-81
2023/12/02 06:10:43;;;;;;;41.33;33.30;;;;;;;;;;4962074;29;20298;-82
2023/12/02 06:13:09;;;;;;;43.27;34.83;;;;;;;;;;4916238;28;20322;-82
2023/12/02 06:15:37;;;;;;;42.90;33.53;;;;;;;;;;4922737;29;20234;-82
2023/12/02 06:18:03;;;;;;;42.33;33.37;;;;;;;;;;4919173;29;20235;-82
2023/12/02 06:20:28;;;;;;;40.87;31.43;;;;;;;;;;4937721;29;20238;-81
2023/12/02 06:22:56;;;;;;;39.30;32.23;;;;;;;;;;4920037;29;20215;-81
2023/12/02 06:25:22;;;;;;;41.77;33.60;;;;;;;;;;4927338;28;20214;-81
2023/12/02 06:27:49;;;;;;;43.00;33.50;;;;;;;;;;4931046;29;20241;-81
2023/12/02 06:30:16;;;;;;;42.33;34.00;;;;;;;;;;4931881;28;20218;-81
2023/12/02 06:32:42;;;;;;;40.23;33.03;;;;;;;;;;4920298;29;20236;-82
2023/12/02 06:35:13;;;;;;;39.03;32.10;;;;;;;;;;4931621;29;20234;-81
2023/12/02 06:37:41;;;;;;;40.60;32.93;;;;;;;;;;4948920;29;20227;-81
2023/12/02 06:40:10;;;;;;;36.30;30.50;;;;;;;;;;4946739;29;20710;-81
2023/12/02 06:42:36;;;;;;;38.83;32.57;;;;;;;;;;4948739;28;20241;-82
2023/12/02 06:45:01;;;;;;;40.87;32.83;;;;;;;;;;4921022;29;20247;-81
2023/12/02 06:47:29;;;;;;;42.43;32.93;;;;;;;;;;4929608;29;20215;-81
2023/12/02 06:49:57;;;;;;;45.00;33.07;;;;;;;;;;4933057;28;20227;-81
2023/12/02 06:52:22;;;;;;;43.90;33.80;;;;;;;;;;4933034;29;21067;-81
2023/12/02 06:54:50;;;;;;;42.50;32.67;;;;;;;;;;4916520;28;20234;-81
2023/12/02 06:57:16;;;;;;;39.77;32.17;;;;;;;;;;4931216;28;20309;-81
2023/12/02 06:59:45;;;;;;;40.10;32.43;;;;;;;;;;4941821;28;20259;-81
2023/12/02 07:02:12;;;;;;;45.47;33.20;;;;;;;;;;4945584;28;20237;-80
2023/12/02 07:04:37;;;;;;;36.87;30.77;;;;;;;;;;4915620;28;20227;-81
2023/12/02 07:07:06;;;;;;;41.97;31.00;;;;;;;;;;4920889;29;20250;-81
2023/12/02 07:09:31;;;;;;;43.00;34.33;;;;;;;;;;4939562;29;20231;-80
2023/12/02 07:11:57;;;;;;;43.97;32.87;;;;;;;;;;4923076;29;20245;-81
2023/12/02 07:14:22;;;;;;;39.70;31.13;;;;;;;;;;4930063;28;20338;-82
2023/12/02 07:16:48;;;;;;;41.77;32.10;;;;;;;;;;4931159;28;20237;-80
2023/12/02 07:19:16;;;;;;;44.57;33.90;;;;;;;;;;4937994;29;20219;-80
2023/12/02 07:21:44;;;;;;;38.97;31.43;;;;;;;;;;4937847;29;20226;-83
2023/12/02 07:24:11;;;;;;;40.70;33.00;;;;;;;;;;4935589;28;20214;-82
2023/12/02 07:26:36;;;;;;;39.03;32.47;;;;;;;;;;4941276;29;20234;-83
2023/12/02 07:29:04;;;;;;;42.03;32.47;;;;;;;;;;4941125;29;20237;-84
2023/12/02 07:31:30;;;;;;;39.40;31.73;;;;;;;;;;4944488;28;20238;-83
2023/12/02 07:33:55;;;;;;;40.93;32.73;;;;;;;;;;4957804;29;20265;-84
2023/12/02 07:36:21;;;;;;;37.67;30.00;;;;;;;;;;4934239;28;20229;-84
2023/12/02 07:38:54;;;;;;;35.40;30.40;;;;;;;;;;4925158;29;20320;-85
2023/12/02 07:41:19;;;;;;;41.37;32.47;;;;;;;;;;4955022;29;20255;-83
2023/12/02 07:43:49;;;;;;;42.03;32.63;;;;;;;;;;4924828;29;20234;-82
2023/12/02 07:46:15;;;;;;;39.17;32.77;;;;;;;;;;4937085;28;20226;-83
2023/12/02 07:48:41;;;;;;;42.57;32.27;;;;;;;;;;4928993;29;20601;-81
2023/12/02 07:51:07;;;;;;;39.93;30.63;;;;;;;;;;4919288;29;20774;-83
2023/12/02 07:53:33;;;;;;;39.17;30.20;;;;;;;;;;4941166;28;20223;-82
2023/12/02 07:56:01;;;;;;;39.50;30.83;;;;;;;;;;4933044;29;20273;-82
2023/12/02 07:58:30;;;;;;;42.30;31.37;;;;;;;;;;4909870;28;20227;-83
2023/12/02 08:01:00;;;;;;;38.57;31.00;;;;;;;;;;4948051;29;20315;-83
2023/12/02 08:03:26;;;;;;;36.93;30.77;;;;;;;;;;4934336;28;20274;-82
2023/12/02 08:05:53;;;;;;;35.97;30.13;;;;;;;;;;4960466;28;20227;-86
2023/12/02 08:08:23;;;;;;;36.47;29.43;;;;;;;;;;4966835;28;20270;-87
2023/12/02 08:10:51;;;;;;;36.30;30.27;;;;;;;;;;4937893;29;20245;-82
2023/12/02 08:13:20;;;;;;;35.73;27.57;;;;;;;;;;4956678;28;20302;-82
2023/12/02 08:15:45;;;;;;;33.70;27.00;;;;;;;;;;4951312;29;20207;-82
2023/12/02 08:18:13;;;;;;;34.80;29.03;;;;;;;;;;4975904;28;20231;-78
2023/12/02 08:20:41;;;;;;;35.27;28.40;;;;;;;;;;4926915;29;20278;-78
2023/12/02 08:23:07;;;;;;;35.70;28.20;;;;;;;;;;4938127;28;20523;-78
2023/12/02 08:25:35;;;;;;;33.77;28.67;;;;;;;;;;4965071;28;20318;-79
2023/12/02 08:28:00;;;;;;;32.03;26.73;;;;;;;;;;4920603;29;20677;-80
2023/12/02 08:30:28;;;;;;;32.97;27.63;;;;;;;;;;4939035;28;20610;-81
2023/12/02 08:32:54;;;;;;;31.17;25.87;;;;;;;;;;4921289;29;20227;-80
2023/12/02 08:35:20;;;;;;;33.10;26.30;;;;;;;;;;4909154;28;20214;-82
2023/12/02 08:37:45;;;;;;;30.93;26.60;;;;;;;;;;4935505;28;20927;-77
2023/12/02 08:40:11;;;;;;;33.03;27.53;;;;;;;;;;4938638;28;20234;-81
2023/12/02 08:42:36;;;;;;;33.30;25.83;;;;;;;;;;4953463;29;20223;-81
2023/12/02 08:45:06;;;;;;;30.50;26.43;;;;;;;;;;4941120;29;20231;-81
2023/12/02 08:47:31;;;;;;;32.00;25.53;;;;;;;;;;4924552;29;20238;-80
2023/12/02 08:49:57;;;;;;;29.97;25.17;;;;;;;;;;4924362;29;20262;-81
2023/12/02 08:52:25;;;;;;;29.93;25.53;;;;;;;;;;4931140;28;20283;-80
2023/12/02 08:54:53;;;;;;;31.37;24.63;;;;;;;;;;4938866;28;20237;-79
2023/12/02 08:57:19;;;;;;;29.37;25.83;;;;;;;;;;4925305;28;20219;-81
2023/12/02 08:59:49;;;;;;;31.80;26.17;;;;;;;;;;4926213;29;20235;-82
2023/12/02 09:02:19;;;;;;;31.03;26.60;;;;;;;;;;4934140;28;20231;-81
2023/12/02 09:04:45;;;;;;;28.50;24.30;;;;;;;;;;4949952;28;20632;-81
2023/12/02 09:07:14;;;;;;;29.63;24.90;;;;;;;;;;4932702;28;20222;-81
2023/12/02 09:09:44;;;;;;;27.23;23.83;;;;;;;;;;4939578;29;20239;-80
2023/12/02 09:12:13;;;;;;;34.07;24.33;;;;;;;;;;4932472;28;20910;-81
2023/12/02 09:14:38;;;;;;;24.53;21.63;;;;;;;;;;4924898;28;20246;-79
2023/12/02 09:17:04;;;;;;;25.50;22.47;;;;;;;;;;4930569;29;20228;-80
2023/12/02 09:19:53;;;;;;;28.77;23.60;;;;;;;;;;4940409;28;20249;-82
2023/12/02 09:22:31;;;;;;;26.30;22.83;;;;;;;;;;4916573;29;20224;-79
2023/12/02 09:24:57;;;;;;;28.87;23.07;;;;;;;;;;4918946;29;20720;-79
2023/12/02 09:28:04;;;;;;;23.83;21.27;;;;;;;;;;4917396;28;20244;-80
2023/12/02 09:30:31;;;;;;;26.50;22.73;;;;;;;;;;4896876;29;20748;-80
2023/12/02 09:32:59;;;;;;;25.70;22.23;;;;;;;;;;4879845;29;20655;-80
2023/12/02 09:35:24;;;;;;;28.20;22.03;;;;;;;;;;4902405;28;20250;-80
2023/12/02 09:37:57;;;;;;;24.57;21.10;;;;;;;;;;4930900;29;20282;-79
2023/12/02 09:40:25;;;;;;;26.43;22.23;;;;;;;;;;4942414;28;20254;-80
2023/12/02 09:43:21;;;;;;;25.47;22.20;;;;;;;;;;4928594;29;20223;-80
2023/12/02 09:46:25;;;;;;;26.43;22.13;;;;;;;;;;4941243;28;20246;-80
2023/12/02 09:49:12;;;;;;;27.37;24.57;;;;;;;;;;4939807;28;20227;-83
2023/12/02 09:51:47;;;;;;;28.23;22.07;;;;;;;;;;4934384;29;20265;-81
2023/12/02 09:54:27;;;;;;;34.03;22.53;;;;;;;;;;4947370;29;20223;-80
2023/12/02 09:56:56;;;;;;;25.63;22.50;;;;;;;;;;4914443;29;20262;-79
2023/12/02 09:59:28;;;;;;;29.77;23.97;;;;;;;;;;4907964;28;20257;-81
2023/12/02 10:02:20;;;;;;;23.90;21.43;;;;;;;;;;4933721;29;20299;-80
2023/12/02 10:04:52;;;;;;;21.83;19.30;;;;;;;;;;4915381;29;20242;-81
2023/12/02 10:07:47;;;;;;;28.10;20.60;;;;;;;;;;4898536;28;20219;-79
2023/12/02 10:10:18;;;;;;;22.30;19.80;;;;;;;;;;4959011;28;20238;-77
2023/12/02 10:13:07;;;;;;;23.47;19.50;;;;;;;;;;4920707;29;20230;-80
2023/12/02 10:15:32;;;;;;;30.13;19.50;;;;;;;;;;4945171;28;20239;-81
2023/12/02 10:18:14;;;;;;;25.67;18.27;;;;;;;;;;4919986;29;20230;-77
2023/12/02 10:20:41;;;;;;;21.60;18.20;;;;;;;;;;4935481;29;20237;-79
2023/12/02 10:23:27;;;;;;;19.67;17.63;;;;;;;;;;4932178;28;20223;-80
2023/12/02 10:26:08;;;;;;;21.17;18.43;;;;;;;;;;4946054;28;20234;-83
2023/12/02 10:28:43;;;;;;;18.83;16.83;;;;;;;;;;4935657;29;20231;-83
2023/12/02 10:31:11;;;;;;;19.40;17.33;;;;;;;;;;4933681;28;20249;-83
2023/12/02 10:33:47;;;;;;;22.03;17.10;;;;;;;;;;4961367;28;20258;-82
2023/12/02 10:36:13;;;;;;;20.67;17.53;;;;;;;;;;4912152;28;20703;-79
2023/12/02 10:38:44;;;;;;;20.53;17.57;;;;;;;;;;4932501;29;20239;-80
2023/12/02 10:41:36;;;;;;;18.43;16.43;;;;;;;;;;4962620;28;20327;-80
2023/12/02 10:44:04;;;;;;;20.03;16.67;;;;;;;;;;4936625;29;20250;-78
2023/12/02 10:46:30;;;;;;;22.63;17.47;;;;;;;;;;4950322;28;20231;-82
2023/12/02 10:48:56;;;;;;;21.90;17.53;;;;;;;;;;4911786;29;20232;-81
2023/12/02 10:51:22;;;;;;;19.13;16.37;;;;;;;;;;4930405;28;20246;-81
2023/12/02 10:53:51;;;;;;;18.53;16.70;;;;;;;;;;4947038;29;20250;-81
2023/12/02 10:56:21;;;;;;;20.23;16.43;;;;;;;;;;4928750;28;20245;-81
2023/12/02 10:58:50;;;;;;;20.67;17.40;;;;;;;;;;4919486;29;20243;-81
2023/12/02 11:01:25;;;;;;;24.00;18.80;;;;;;;;;;4928383;28;20222;-80
2023/12/02 11:03:55;;;;;;;21.23;18.20;;;;;;;;;;4930327;29;20223;-81
2023/12/02 11:06:23;;;;;;;18.30;16.30;;;;;;;;;;4929162;28;20243;-80
2023/12/02 11:08:48;;;;;;;18.03;16.07;;;;;;;;;;4942304;29;20289;-81
2023/12/02 11:12:49;;;;;;;17.90;16.10;;;;;;;;;;5100022;27;20799;-78
2023/12/02 11:15:14;;;;;;;18.33;16.30;;;;;;;;;;5081727;28;20610;-78
2023/12/02 11:17:40;;;;;;;21.53;19.43;;;;;;;;;;5053908;28;20442;-78
2023/12/02 11:20:20;;;;;;;19.70;17.47;;;;;;;;;;5085468;28;20222;-81
2023/12/02 11:23:19;;;;;;;17.10;15.33;;;;;;;;;;5088503;28;20226;-80
2023/12/02 11:26:04;;;;;;;18.70;16.70;;;;;;;;;;5062956;28;20578;-81
2023/12/02 11:28:35;;;;;;;19.47;15.30;;;;;;;;;;5071422;28;20214;-79
2023/12/02 11:31:38;;;;;;;17.63;15.80;;;;;;;;;;5070638;28;20230;-79
2023/12/02 11:34:27;;;;;;;15.70;14.10;;;;;;;;;;5072400;28;20221;-80
2023/12/02 11:37:07;;;;;;;15.43;13.83;;;;;;;;;;5097283;28;20233;-79
2023/12/02 11:39:39;;;;;;;15.30;13.73;;;;;;;;;;5087834;28;20219;-80
2023/12/02 11:42:19;;;;;;;15.93;14.10;;;;;;;;;;5088634;28;20210;-80
2023/12/02 11:44:55;;;;;;;19.87;15.47;;;;;;;;;;5083834;28;20298;-80
2023/12/02 11:47:43;;;;;;;15.37;13.87;;;;;;;;;;5071137;28;20340;-80
2023/12/02 11:50:20;;;;;;;15.10;13.47;;;;;;;;;;5087318;28;20215;-79
2023/12/02 11:52:46;;;;;;;14.93;13.47;;;;;;;;;;5088173;28;20340;-79
2023/12/02 11:55:16;;;;;;;14.67;13.10;;;;;;;;;;5091890;28;20242;-80
2023/12/02 11:58:13;;;;;;;14.50;13.10;;;;;;;;;;5069074;28;20223;-79
2023/12/02 12:00:55;;;;;;;14.20;12.80;;;;;;;;;;5050547;28;20224;-78
2023/12/02 12:03:46;;;;;;;15.27;12.80;;;;;;;;;;5064785;28;20225;-78
2023/12/02 12:06:36;;;;;;;15.20;13.63;;;;;;;;;;5063160;28;20215;-78
2023/12/02 12:09:29;;;;;;;15.27;13.77;;;;;;;;;;5071753;28;20211;-78
2023/12/02 12:11:54;;;;;;;18.80;16.43;;;;;;;;;;5080732;28;20595;-78
2023/12/02 12:14:20;;;;;;;15.40;13.97;;;;;;;;;;5072297;28;20238;-79
2023/12/02 12:16:48;;;;;;;15.23;13.60;;;;;;;;;;5046709;28;20305;-78
2023/12/02 12:19:13;;;;;;;16.83;14.97;;;;;;;;;;5073591;28;20252;-78
2023/12/02 12:21:42;;;;;;;19.03;13.90;;;;;;;;;;5058128;28;20215;-78
2023/12/02 12:24:08;;;;;;;16.07;14.50;;;;;;;;;;5033661;28;20222;-79
2023/12/02 12:26:33;;;;;;;15.87;14.27;;;;;;;;;;5047777;28;20673;-78
2023/12/02 12:29:01;;;;;;;17.37;15.00;;;;;;;;;;5053538;28;20215;-78
2023/12/02 12:31:31;;;;;;;16.60;14.47;;;;;;;;;;5062715;28;20747;-78
2023/12/02 12:34:00;;;;;;;17.13;15.20;;;;;;;;;;5060508;28;20226;-78
2023/12/02 12:36:31;;;;;;;15.20;13.73;;;;;;;;;;5045807;28;20715;-78
2023/12/02 12:38:59;;;;;;;17.67;14.40;;;;;;;;;;5045447;28;20215;-78
2023/12/02 12:41:27;;;;;;;16.47;14.87;;;;;;;;;;5045323;28;20214;-78
2023/12/02 12:43:59;;;;;;;15.13;13.63;;;;;;;;;;5047609;28;20222;-78
2023/12/02 12:46:26;;;;;;;15.40;13.90;;;;;;;;;;5035527;28;20229;-77
2023/12/02 12:48:54;;;;;;;18.10;14.63;;;;;;;;;;5045881;28;20222;-78
2023/12/02 12:51:23;;;;;;;16.43;14.80;;;;;;;;;;5046808;28;20233;-79
2023/12/02 12:53:58;;;;;;;15.87;14.27;;;;;;;;;;5031985;28;20219;-80
2023/12/02 12:56:42;;;;;;;16.57;14.97;;;;;;;;;;5061283;28;20229;-79
2023/12/02 12:59:14;;;;;;;16.47;14.87;;;;;;;;;;5021856;28;20211;-79
2023/12/02 13:02:04;;;;;;;15.87;14.27;;;;;;;;;;5030347;28;20215;-78
2023/12/02 13:04:37;;;;;;;15.47;13.87;;;;;;;;;;5047166;28;20223;-78
2023/12/02 13:07:10;;;;;;;15.00;13.40;;;;;;;;;;5037365;28;20345;-79
2023/12/02 13:09:43;;;;;;;15.00;13.70;;;;;;;;;;5056525;28;20238;-79
2023/12/02 13:12:20;;;;;;;14.80;13.30;;;;;;;;;;5035768;28;20226;-79
2023/12/02 13:14:54;;;;;;;16.23;14.63;;;;;;;;;;5049049;28;20226;-79
2023/12/02 13:17:20;;;;;;;15.63;14.23;;;;;;;;;;5058446;28;20245;-80
2023/12/02 13:19:46;;;;;;;15.40;13.93;;;;;;;;;;5029525;28;20219;-80
2023/12/02 13:22:17;;;;;;;15.23;13.50;;;;;;;;;;5032150;28;20747;-79
2023/12/02 13:25:02;;;;;;;14.57;13.17;;;;;;;;;;5047663;28;20219;-80
2023/12/02 13:28:28;;;;;;;16.10;14.50;;;;;;;;;;5046047;28;20245;-79
2023/12/02 13:30:55;;;;;;;14.07;12.70;;;;;;;;;;5038264;28;20253;-81
2023/12/02 13:33:50;;;;;;;14.83;13.53;;;;;;;;;;5051102;28;20231;-79
2023/12/02 13:36:24;;;;;;;12.70;11.60;;;;;;;;;;5020580;28;20220;-79
2023/12/02 13:39:05;;;;;;;14.07;12.07;;;;;;;;;;5070658;28;20252;-80
2023/12/02 13:41:38;;;;;;;12.87;11.63;;;;;;;;;;5053473;28;20272;-79
2023/12/02 13:44:06;;;;;;;14.57;13.10;;;;;;;;;;5065369;28;20258;-79
2023/12/02 13:47:15;;;;;;;13.33;12.13;;;;;;;;;;5066231;28;20246;-79
2023/12/02 13:49:43;;;;;;;12.93;11.63;;;;;;;;;;5049420;28;20231;-79
2023/12/02 13:52:14;;;;;;;17.70;15.73;;;;;;;;;;5039518;28;20227;-79
2023/12/02 13:55:01;;;;;;;16.47;14.90;;;;;;;;;;5054081;28;20220;-80
2023/12/02 13:58:00;;;;;;;18.80;16.90;;;;;;;;;;5061415;28;20612;-79
2023/12/02 14:00:43;;;;;;;19.87;16.43;;;;;;;;;;5056568;28;20706;-80
2023/12/02 14:03:22;;;;;;;16.73;15.03;;;;;;;;;;5042544;28;20223;-81
2023/12/02 14:05:54;;;;;;;13.13;11.90;;;;;;;;;;5045129;28;20226;-80
2023/12/02 14:08:20;;;;;;;12.97;11.67;;;;;;;;;;5025288;28;20223;-79
2023/12/02 14:10:46;;;;;;;19.00;17.07;;;;;;;;;;5017108;28;20231;-78
2023/12/02 14:13:39;;;;;;;14.47;12.97;;;;;;;;;;5046570;28;20231;-81
2023/12/02 14:16:36;;;;;;;13.70;12.30;;;;;;;;;;5032633;28;20608;-78
2023/12/02 14:19:25;;;;;;;11.63;10.60;;;;;;;;;;5044354;28;20293;-79
2023/12/02 14:21:59;;;;;;;10.60;9.70;;;;;;;;;;5044832;28;20601;-79
2023/12/02 14:24:44;;;;;;;11.90;10.80;;;;;;;;;;5046720;28;20346;-81
2023/12/02 14:27:27;;;;;;;12.73;10.57;;;;;;;;;;5044353;28;20309;-81
2023/12/02 14:29:53;;;;;;;12.43;11.17;;;;;;;;;;5037088;28;20233;-79
2023/12/02 14:32:22;;;;;;;12.43;11.23;;;;;;;;;;5032265;28;20318;-79
2023/12/02 14:35:25;;;;;;;10.80;9.83;;;;;;;;;;5055230;28;20223;-78
2023/12/02 14:38:13;;;;;;;11.80;10.67;;;;;;;;;;5027855;28;20227;-77